Time;durP1;ratioP1;P1;durP2;ratioP2;P2;SDS_P1;SDS_P2;PMS_P1;PMS_P2;Temp;Humidity;BMP_temperature;BMP_pressure;BME280_temperature;BME280_humidity;BME280_pressure;Samples;Min_cycle;Max_cycle;Signal;HPM_P1;HPM_P2
2022/01/04 00:00:26;;;;;;;2.03;1.30;;;21.70;58.20;;;;;;4936992;29;20174;-73
2022/01/04 00:02:52;;;;;;;1.65;1.20;;;21.70;58.20;;;;;;4953263;29;20190;-73
2022/01/04 00:05:17;;;;;;;2.10;1.23;;;21.70;58.20;;;;;;4921210;29;20644;-74
2022/01/04 00:07:43;;;;;;;1.63;1.10;;;21.70;58.20;;;;;;4936964;29;20215;-74
2022/01/04 00:10:09;;;;;;;1.20;1.08;;;21.70;58.20;;;;;;4954136;29;20186;-74
2022/01/04 00:15:21;;;;;;;1.20;1.10;;;21.70;58.30;;;;;;4953762;29;20217;-73
2022/01/04 00:17:47;;;;;;;1.30;0.95;;;21.70;58.30;;;;;;4953910;29;20281;-73
2022/01/04 00:20:13;;;;;;;2.40;1.48;;;21.70;58.30;;;;;;4920921;28;20274;-74
2022/01/04 00:22:38;;;;;;;1.85;1.20;;;21.70;58.20;;;;;;4940790;29;20190;-73
2022/01/04 00:25:06;;;;;;;2.55;1.30;;;21.70;58.30;;;;;;4924425;29;20186;-74
2022/01/04 00:27:32;;;;;;;1.50;1.30;;;21.70;58.20;;;;;;4924889;29;20213;-73
2022/01/04 00:29:58;;;;;;;2.33;1.00;;;21.70;58.20;;;;;;4924557;29;20178;-74
2022/01/04 00:32:24;;;;;;;1.38;0.80;;;21.70;58.20;;;;;;4924718;29;20186;-73
2022/01/04 00:34:50;;;;;;;2.20;1.20;;;21.70;58.20;;;;;;4957338;29;20189;-73
2022/01/04 00:37:15;;;;;;;3.53;1.38;;;21.70;58.20;;;;;;4940341;29;20265;-73
2022/01/04 00:39:41;;;;;;;1.38;1.05;;;21.70;58.10;;;;;;4940179;29;20186;-74
2022/01/04 00:42:07;;;;;;;1.20;0.93;;;21.70;58.20;;;;;;4940214;29;20190;-74
2022/01/04 00:44:33;;;;;;;1.52;0.90;;;21.70;58.20;;;;;;4940146;29;20167;-74
2022/01/04 00:46:59;;;;;;;1.30;1.00;;;21.70;58.20;;;;;;4956169;29;20197;-74
2022/01/04 00:49:25;;;;;;;1.85;1.02;;;21.70;58.20;;;;;;4924064;29;20301;-74
2022/01/04 00:51:53;;;;;;;2.30;1.20;;;21.70;58.20;;;;;;4939938;29;20187;-74
2022/01/04 00:54:21;;;;;;;1.23;1.13;;;21.70;58.20;;;;;;4939723;29;20277;-73
2022/01/04 00:56:48;;;;;;;0.98;0.90;;;21.70;58.20;;;;;;4924002;29;20697;-74
2022/01/04 00:59:14;;;;;;;1.10;0.93;;;21.70;58.20;;;;;;4923990;29;20257;-74
2022/01/04 01:01:41;;;;;;;1.83;1.08;;;21.70;58.30;;;;;;4939731;29;20206;-74
2022/01/04 01:04:08;;;;;;;1.15;0.90;;;21.70;58.20;;;;;;4924024;29;20245;-73
2022/01/04 01:06:34;;;;;;;2.63;1.17;;;21.70;58.10;;;;;;4939451;29;20190;-73
2022/01/04 01:09:00;;;;;;;1.40;1.00;;;21.70;58.20;;;;;;4923891;29;20214;-73
2022/01/04 01:11:26;;;;;;;1.05;0.93;;;21.70;58.20;;;;;;4939685;29;20194;-74
2022/01/04 01:13:53;;;;;;;1.33;1.00;;;21.70;58.20;;;;;;4956881;29;20321;-74
2022/01/04 01:16:19;;;;;;;1.42;0.93;;;21.70;58.20;;;;;;4939219;29;20744;-74
2022/01/04 01:18:45;;;;;;;2.00;1.10;;;21.70;58.30;;;;;;4923877;29;20626;-73
2022/01/04 01:21:12;;;;;;;1.00;0.82;;;21.70;58.30;;;;;;4923551;29;20185;-74
2022/01/04 01:23:38;;;;;;;1.50;0.82;;;21.60;58.20;;;;;;4939730;29;20217;-73
2022/01/04 01:26:07;;;;;;;0.80;0.80;;;21.60;58.20;;;;;;4923460;29;20210;-74
2022/01/04 01:28:35;;;;;;;1.25;1.00;;;21.60;58.20;;;;;;4939227;29;20690;-74
2022/01/04 01:31:01;;;;;;;0.95;0.93;;;21.70;58.20;;;;;;4939338;29;20178;-74
2022/01/04 01:33:27;;;;;;;1.40;1.10;;;21.60;58.20;;;;;;4922829;29;20194;-74
2022/01/04 01:35:57;;;;;;;0.80;0.80;;;21.70;58.30;;;;;;4923102;29;20257;-74
2022/01/04 01:38:24;;;;;;;1.70;1.00;;;21.70;58.20;;;;;;4939050;29;20292;-74
2022/01/04 01:40:52;;;;;;;1.10;1.00;;;21.60;58.20;;;;;;4939326;29;20282;-74
2022/01/04 01:43:19;;;;;;;1.20;1.10;;;21.70;58.20;;;;;;4939223;29;20237;-74
2022/01/04 01:45:46;;;;;;;1.10;1.00;;;21.70;58.20;;;;;;4923327;29;20191;-73
2022/01/04 01:48:13;;;;;;;1.00;0.90;;;21.70;58.30;;;;;;4923450;29;20210;-74
2022/01/04 01:50:39;;;;;;;1.33;1.00;;;21.70;58.20;;;;;;4938848;29;20186;-74
2022/01/04 01:53:04;;;;;;;1.00;0.80;;;21.70;58.20;;;;;;4923092;29;20190;-74
2022/01/04 01:55:31;;;;;;;0.90;0.90;;;21.70;58.20;;;;;;4938542;29;20640;-74
2022/01/04 01:57:58;;;;;;;1.48;1.00;;;21.70;58.30;;;;;;4955076;28;20218;-74
2022/01/04 02:00:28;;;;;;;1.25;0.88;;;21.70;58.30;;;;;;4923249;29;20213;-74
2022/01/04 02:02:54;;;;;;;1.42;1.05;;;21.70;58.30;;;;;;4938760;29;20186;-73
2022/01/04 02:05:21;;;;;;;0.80;0.80;;;21.70;58.30;;;;;;4922807;29;20194;-74
2022/01/04 02:07:47;;;;;;;1.20;0.88;;;21.70;58.30;;;;;;4938509;29;20217;-73
2022/01/04 02:10:13;;;;;;;0.80;0.77;;;21.70;58.30;;;;;;4938752;29;20654;-74
2022/01/04 02:12:46;;;;;;;2.45;0.95;;;21.70;58.30;;;;;;4938539;29;20202;-74
2022/01/04 02:15:17;;;;;;;2.58;0.80;;;21.70;58.30;;;;;;4922413;29;20250;-74
2022/01/04 02:17:43;;;;;;;1.10;0.90;;;21.70;58.90;;;;;;4922596;29;20250;-73
2022/01/04 02:20:10;;;;;;;1.45;0.80;;;21.70;58.30;;;;;;4922565;29;20201;-73
2022/01/04 02:22:36;;;;;;;1.00;0.90;;;21.70;58.30;;;;;;4954411;28;20190;-74
2022/01/04 02:25:04;;;;;;;1.08;0.70;;;21.70;58.30;;;;;;4922558;29;20592;-73
2022/01/04 02:27:38;;;;;;;0.90;0.90;;;21.70;58.90;;;;;;4922432;29;20187;-73
2022/01/04 02:30:10;;;;;;;1.05;0.75;;;21.70;58.30;;;;;;4922722;29;20185;-74
2022/01/04 02:32:36;;;;;;;1.25;0.90;;;21.70;58.30;;;;;;4938149;29;20191;-74
2022/01/04 02:35:04;;;;;;;1.45;1.10;;;21.70;58.30;;;;;;4922254;29;20186;-74
2022/01/04 02:37:31;;;;;;;1.25;0.88;;;21.70;58.30;;;;;;4937835;29;20249;-74
2022/01/04 02:39:56;;;;;;;0.90;0.90;;;21.70;58.30;;;;;;4922152;29;20178;-74
2022/01/04 02:42:23;;;;;;;1.55;1.00;;;21.70;58.30;;;;;;4938099;29;20190;-74
2022/01/04 02:44:49;;;;;;;1.35;0.70;;;21.70;58.30;;;;;;4921309;29;20179;-74
2022/01/04 02:47:15;;;;;;;1.50;1.13;;;21.70;58.30;;;;;;4922147;29;20189;-73
2022/01/04 02:49:42;;;;;;;1.70;0.90;;;21.70;58.30;;;;;;4938268;29;20284;-74
2022/01/04 02:52:08;;;;;;;1.38;1.00;;;21.70;58.30;;;;;;4937880;29;20609;-74
2022/01/04 02:54:34;;;;;;;2.25;1.00;;;21.70;58.30;;;;;;4937583;29;20190;-73
2022/01/04 02:57:00;;;;;;;0.75;0.70;;;21.70;58.30;;;;;;4937639;29;20307;-73
2022/01/04 02:59:26;;;;;;;0.70;0.70;;;21.70;58.30;;;;;;4937735;29;20230;-73
2022/01/04 03:01:52;;;;;;;1.00;0.80;;;21.70;58.30;;;;;;4937775;29;20282;-74
2022/01/04 03:04:20;;;;;;;1.45;0.85;;;21.70;58.30;;;;;;4921247;29;20199;-72
2022/01/04 03:06:46;;;;;;;1.05;0.95;;;21.70;58.30;;;;;;4945363;29;20249;-74
2022/01/04 03:09:12;;;;;;;0.90;0.80;;;21.70;58.30;;;;;;4954538;29;20202;-74
2022/01/04 03:11:38;;;;;;;0.50;0.50;;;21.70;58.30;;;;;;4954940;28;20183;-74
2022/01/04 03:14:04;;;;;;;1.00;0.88;;;21.70;58.30;;;;;;4949890;29;20638;-73
2022/01/04 03:16:30;;;;;;;0.85;0.60;;;21.70;58.90;;;;;;4946501;29;20214;-73
2022/01/04 03:21:27;;;;;;;1.10;0.80;;;21.70;58.30;;;;;;4953380;29;20190;-74
2022/01/04 03:23:53;;;;;;;1.20;1.05;;;21.70;58.30;;;;;;4937312;29;20277;-73
2022/01/04 03:26:19;;;;;;;0.80;0.80;;;21.70;58.30;;;;;;4937250;29;20194;-74
2022/01/04 03:28:44;;;;;;;1.13;0.70;;;21.70;58.30;;;;;;4953170;29;20237;-74
2022/01/04 03:31:11;;;;;;;0.90;0.80;;;21.70;58.30;;;;;;4953417;29;20186;-74
2022/01/04 03:33:37;;;;;;;0.75;0.75;;;21.70;58.30;;;;;;4928537;29;20289;-74
2022/01/04 03:36:05;;;;;;;1.05;0.70;;;21.70;58.30;;;;;;4936853;29;20210;-74
2022/01/04 03:38:31;;;;;;;0.63;0.63;;;21.70;58.30;;;;;;4936979;29;20214;-74
2022/01/04 03:40:57;;;;;;;0.95;0.88;;;21.70;58.40;;;;;;4953219;29;20285;-74
2022/01/04 03:43:24;;;;;;;1.27;0.80;;;21.70;58.30;;;;;;4937165;29;20274;-74
2022/01/04 03:45:50;;;;;;;2.30;0.70;;;21.70;58.40;;;;;;4953212;29;20193;-74
2022/01/04 03:48:17;;;;;;;1.15;0.80;;;21.70;58.30;;;;;;4953019;29;20206;-74
2022/01/04 03:50:43;;;;;;;1.05;0.98;;;21.70;58.30;;;;;;4937238;29;20186;-74
2022/01/04 03:53:09;;;;;;;0.88;0.65;;;21.70;58.30;;;;;;4954249;29;20281;-74
2022/01/04 03:55:35;;;;;;;0.77;0.77;;;21.70;58.30;;;;;;4954511;28;20245;-74
2022/01/04 03:58:01;;;;;;;0.93;0.80;;;21.70;58.30;;;;;;4958031;29;20236;-74
2022/01/04 04:00:27;;;;;;;0.63;0.63;;;21.70;58.30;;;;;;4941091;29;20186;-74
2022/01/04 04:02:53;;;;;;;1.05;0.90;;;21.70;58.30;;;;;;4925335;29;20189;-74
2022/01/04 04:05:19;;;;;;;0.70;0.70;;;21.70;58.30;;;;;;4956531;29;20186;-74
2022/01/04 04:07:45;;;;;;;0.52;0.52;;;21.70;58.30;;;;;;4940698;29;20369;-74
2022/01/04 04:10:11;;;;;;;0.98;0.70;;;21.70;58.30;;;;;;4940797;28;20298;-74
2022/01/04 04:12:37;;;;;;;0.60;0.60;;;21.70;58.30;;;;;;4940934;29;20190;-74
2022/01/04 04:15:08;;;;;;;0.73;0.73;;;21.70;58.30;;;;;;4956799;28;20183;-74
2022/01/04 04:17:35;;;;;;;1.00;0.90;;;21.70;58.30;;;;;;4940658;29;20289;-74
2022/01/04 04:20:03;;;;;;;2.10;0.80;;;21.70;58.30;;;;;;4924795;29;20655;-74
2022/01/04 04:22:29;;;;;;;0.75;0.75;;;21.70;58.30;;;;;;4940569;29;20186;-74
2022/01/04 04:24:54;;;;;;;0.88;0.70;;;21.70;58.40;;;;;;4924507;29;20201;-74
2022/01/04 04:27:20;;;;;;;0.88;0.77;;;21.70;58.90;;;;;;4956328;29;20194;-74
2022/01/04 04:29:46;;;;;;;0.90;0.70;;;21.70;58.40;;;;;;4940300;28;20217;-74
2022/01/04 04:32:12;;;;;;;0.60;0.60;;;21.70;58.40;;;;;;4957613;29;20182;-74
2022/01/04 04:34:38;;;;;;;0.68;0.68;;;21.70;58.40;;;;;;4957293;29;20651;-73
2022/01/04 04:37:04;;;;;;;0.63;0.63;;;21.70;58.30;;;;;;4940127;28;20214;-74
2022/01/04 04:39:30;;;;;;;0.75;0.50;;;21.70;58.40;;;;;;4940191;29;20265;-73
2022/01/04 04:41:56;;;;;;;0.70;0.70;;;21.70;58.40;;;;;;4956099;28;20190;-74
2022/01/04 04:44:22;;;;;;;1.10;0.90;;;21.70;58.40;;;;;;4940204;29;20192;-73
2022/01/04 04:46:49;;;;;;;0.63;0.63;;;21.70;58.40;;;;;;4940214;29;20590;-74
2022/01/04 04:49:16;;;;;;;0.90;0.73;;;21.70;58.40;;;;;;4956145;29;20214;-74
2022/01/04 04:51:41;;;;;;;1.00;0.90;;;21.70;58.40;;;;;;4957301;29;20195;-74
2022/01/04 04:54:08;;;;;;;1.40;0.77;;;21.70;58.40;;;;;;4956131;29;20190;-74
2022/01/04 04:56:38;;;;;;;0.77;0.77;;;21.70;58.40;;;;;;4957135;29;20214;-74
2022/01/04 04:59:05;;;;;;;1.77;0.90;;;21.70;58.40;;;;;;4955662;29;20198;-74
2022/01/04 05:01:31;;;;;;;0.60;0.50;;;21.70;58.40;;;;;;4923989;29;20277;-74
2022/01/04 05:03:56;;;;;;;1.00;0.80;;;21.70;58.40;;;;;;4955771;28;20270;-74
2022/01/04 05:06:22;;;;;;;1.15;0.70;;;21.70;58.40;;;;;;4924105;29;20186;-74
2022/01/04 05:08:48;;;;;;;0.70;0.70;;;21.70;58.40;;;;;;4955649;28;20210;-74
2022/01/04 05:11:14;;;;;;;0.80;0.77;;;21.70;58.40;;;;;;4923777;29;20195;-74
2022/01/04 05:13:40;;;;;;;1.52;0.63;;;21.70;58.40;;;;;;4955862;29;20249;-74
2022/01/04 05:16:06;;;;;;;0.60;0.52;;;21.70;58.40;;;;;;4939403;29;20658;-74
2022/01/04 05:18:32;;;;;;;0.70;0.70;;;21.70;58.40;;;;;;4939843;29;20253;-74
2022/01/04 05:20:58;;;;;;;0.68;0.60;;;21.70;58.50;;;;;;4955547;29;20213;-74
2022/01/04 05:23:24;;;;;;;0.50;0.50;;;21.70;58.50;;;;;;4939671;29;20190;-74
2022/01/04 05:25:49;;;;;;;0.73;0.70;;;21.70;58.40;;;;;;4955200;29;20198;-74
2022/01/04 05:28:15;;;;;;;0.70;0.70;;;21.70;58.40;;;;;;4955467;29;20697;-74
2022/01/04 05:30:41;;;;;;;1.27;0.80;;;21.60;58.40;;;;;;4956635;29;20170;-74
2022/01/04 05:33:07;;;;;;;1.35;0.70;;;21.70;58.50;;;;;;4955234;28;20187;-74
2022/01/04 05:35:32;;;;;;;0.73;0.65;;;21.70;58.50;;;;;;4939141;29;20206;-74
2022/01/04 05:37:58;;;;;;;0.80;0.77;;;21.70;58.50;;;;;;4956485;28;20218;-74
2022/01/04 05:40:24;;;;;;;1.15;0.90;;;21.70;58.50;;;;;;4955364;28;20190;-74
2022/01/04 05:42:50;;;;;;;1.67;0.70;;;21.70;58.50;;;;;;4955036;29;20186;-74
2022/01/04 05:45:16;;;;;;;0.80;0.60;;;21.70;58.50;;;;;;4956073;29;20179;-74
2022/01/04 05:47:42;;;;;;;0.70;0.70;;;21.70;58.50;;;;;;4939361;29;20257;-74
2022/01/04 05:50:08;;;;;;;0.70;0.70;;;21.70;58.50;;;;;;4955444;29;20187;-74
2022/01/04 05:52:34;;;;;;;1.33;0.75;;;21.70;58.50;;;;;;4938932;29;20573;-73
2022/01/04 05:55:00;;;;;;;0.70;0.70;;;21.70;58.50;;;;;;4960092;28;20190;-74
2022/01/04 05:57:26;;;;;;;0.70;0.70;;;21.70;58.50;;;;;;4932046;29;20218;-74
2022/01/04 05:59:52;;;;;;;0.93;0.85;;;21.70;58.50;;;;;;4954957;29;20174;-74
2022/01/04 06:02:18;;;;;;;0.85;0.80;;;21.70;58.50;;;;;;4938811;29;20186;-74
2022/01/04 06:04:44;;;;;;;0.75;0.70;;;21.70;58.50;;;;;;4938846;29;20190;-73
2022/01/04 06:07:10;;;;;;;2.58;0.77;;;21.70;58.60;;;;;;4949405;28;20669;-74
2022/01/04 06:09:46;;;;;;;0.80;0.60;;;21.70;58.50;;;;;;4965074;28;20225;-74
2022/01/04 06:15:04;;;;;;;1.15;0.77;;;21.70;58.60;;;;;;4944898;29;20194;-74
2022/01/04 06:17:33;;;;;;;2.33;0.60;;;21.70;58.60;;;;;;4938758;29;20245;-73
2022/01/04 06:20:00;;;;;;;2.03;0.82;;;21.70;58.60;;;;;;4938165;29;20182;-73
2022/01/04 06:22:28;;;;;;;2.05;0.82;;;21.70;58.60;;;;;;4938649;29;20218;-74
2022/01/04 06:24:55;;;;;;;0.70;0.70;;;21.70;58.60;;;;;;4938086;29;20187;-74
2022/01/04 06:27:22;;;;;;;1.55;0.70;;;21.70;58.60;;;;;;4938376;29;20191;-74
2022/01/04 06:29:48;;;;;;;0.73;0.65;;;21.70;58.70;;;;;;4922766;29;20187;-73
2022/01/04 06:32:15;;;;;;;0.63;0.57;;;21.70;58.60;;;;;;4954234;29;20245;-74
2022/01/04 06:34:43;;;;;;;0.85;0.85;;;21.70;58.60;;;;;;4954976;29;20197;-73
2022/01/04 06:37:10;;;;;;;1.20;0.63;;;21.70;58.60;;;;;;4937844;29;20214;-74
2022/01/04 06:39:36;;;;;;;1.45;0.60;;;21.70;58.60;;;;;;4922063;29;20209;-72
2022/01/04 06:42:03;;;;;;;1.02;0.80;;;21.70;58.60;;;;;;4937988;29;20187;-73
2022/01/04 06:44:29;;;;;;;0.85;0.60;;;21.70;58.60;;;;;;4938440;28;20179;-74
2022/01/04 06:46:56;;;;;;;0.95;0.80;;;21.70;58.60;;;;;;4937649;29;20257;-74
2022/01/04 06:49:23;;;;;;;0.70;0.70;;;21.70;58.50;;;;;;4938305;29;20212;-74
2022/01/04 06:51:49;;;;;;;0.57;0.57;;;21.70;58.50;;;;;;4955040;29;20182;-74
2022/01/04 06:54:18;;;;;;;0.75;0.70;;;21.70;58.60;;;;;;4938093;29;20182;-73
2022/01/04 06:56:45;;;;;;;1.13;0.60;;;21.70;58.50;;;;;;4937967;29;20666;-74
2022/01/04 06:59:12;;;;;;;0.73;0.73;;;21.70;58.60;;;;;;4954043;29;20293;-74
2022/01/04 07:01:38;;;;;;;0.63;0.50;;;21.70;58.60;;;;;;4937656;29;20194;-74
2022/01/04 07:04:05;;;;;;;0.50;0.50;;;21.70;58.60;;;;;;4953728;29;20197;-74
2022/01/04 07:06:32;;;;;;;0.85;0.52;;;21.70;58.60;;;;;;4937652;29;20197;-74
2022/01/04 07:08:58;;;;;;;0.70;0.50;;;21.70;58.60;;;;;;4937806;29;20218;-74
2022/01/04 07:11:24;;;;;;;0.85;0.77;;;21.70;58.60;;;;;;4937427;29;20179;-75
2022/01/04 07:13:50;;;;;;;0.65;0.60;;;21.70;58.60;;;;;;4921726;29;20194;-74
2022/01/04 07:16:16;;;;;;;0.60;0.60;;;21.70;58.50;;;;;;4937222;29;20218;-74
2022/01/04 07:18:46;;;;;;;0.70;0.60;;;21.70;58.50;;;;;;4937619;29;20221;-74
2022/01/04 07:21:14;;;;;;;0.60;0.52;;;21.70;58.60;;;;;;4937629;29;20202;-74
2022/01/04 07:23:40;;;;;;;0.95;0.65;;;21.70;58.60;;;;;;4954547;29;20191;-74
2022/01/04 07:26:06;;;;;;;1.75;0.65;;;21.70;58.60;;;;;;4921263;29;20198;-74
2022/01/04 07:28:31;;;;;;;2.35;0.68;;;21.70;58.60;;;;;;4954426;29;20221;-74
2022/01/04 07:30:57;;;;;;;0.73;0.70;;;21.70;58.50;;;;;;4937110;29;20186;-74
2022/01/04 07:33:23;;;;;;;1.92;0.60;;;21.70;58.60;;;;;;4921337;29;20201;-74
2022/01/04 07:35:49;;;;;;;0.73;0.70;;;21.70;58.60;;;;;;4921126;29;20224;-74
2022/01/04 07:38:15;;;;;;;0.55;0.55;;;21.70;58.60;;;;;;4926433;28;20233;-74
2022/01/04 07:40:41;;;;;;;1.33;0.70;;;21.70;58.60;;;;;;4956452;28;20209;-74
2022/01/04 07:43:07;;;;;;;0.65;0.60;;;21.60;58.50;;;;;;4956461;28;20257;-74
2022/01/04 07:45:34;;;;;;;0.88;0.77;;;21.70;58.50;;;;;;4933265;29;20186;-74
2022/01/04 07:48:01;;;;;;;1.65;0.60;;;21.70;58.60;;;;;;4944792;29;20206;-74
2022/01/04 07:50:27;;;;;;;1.70;0.68;;;21.70;58.60;;;;;;4937534;29;20194;-74
2022/01/04 07:52:54;;;;;;;1.00;0.77;;;21.70;58.50;;;;;;4937073;29;20206;-74
2022/01/04 07:55:20;;;;;;;2.10;0.50;;;21.70;58.60;;;;;;4936857;29;20233;-73
2022/01/04 07:57:46;;;;;;;0.93;0.57;;;21.70;58.60;;;;;;4953040;29;20198;-74
2022/01/04 08:00:13;;;;;;;0.90;0.70;;;21.70;58.60;;;;;;4937182;29;20174;-74
2022/01/04 08:02:43;;;;;;;0.60;0.60;;;21.70;58.60;;;;;;4937568;29;20604;-74
2022/01/04 08:05:10;;;;;;;1.67;0.63;;;21.70;58.60;;;;;;4920907;29;20190;-74
2022/01/04 08:07:37;;;;;;;0.73;0.60;;;21.70;58.60;;;;;;4936628;29;20213;-73
2022/01/04 08:10:04;;;;;;;1.23;0.57;;;21.70;58.60;;;;;;4933436;29;20198;-74
2022/01/04 08:12:30;;;;;;;2.47;0.65;;;21.70;58.50;;;;;;4939730;29;20198;-73
2022/01/04 08:14:56;;;;;;;0.57;0.50;;;21.70;58.60;;;;;;4936496;29;20646;-73
2022/01/04 08:17:22;;;;;;;0.50;0.50;;;21.70;58.50;;;;;;4944734;28;20221;-73
2022/01/04 08:19:50;;;;;;;2.33;0.68;;;21.70;58.60;;;;;;4933344;29;20205;-74
2022/01/04 08:22:16;;;;;;;0.50;0.50;;;21.70;58.60;;;;;;4963317;28;20654;-73
2022/01/04 08:24:42;;;;;;;0.77;0.77;;;21.70;58.60;;;;;;4929507;29;20191;-74
2022/01/04 08:27:08;;;;;;;0.95;0.60;;;21.60;58.50;;;;;;4921001;29;20197;-74
2022/01/04 08:29:34;;;;;;;0.73;0.60;;;21.60;58.50;;;;;;4953870;29;20206;-74
2022/01/04 08:32:00;;;;;;;1.10;0.55;;;21.70;58.60;;;;;;4928706;28;20220;-74
2022/01/04 08:34:26;;;;;;;0.63;0.63;;;21.60;58.50;;;;;;4953277;28;20186;-74
2022/01/04 08:36:52;;;;;;;0.77;0.70;;;21.70;58.60;;;;;;4952436;29;20217;-74
2022/01/04 08:39:20;;;;;;;1.13;0.82;;;21.70;58.60;;;;;;4955594;28;20221;-74
2022/01/04 08:41:46;;;;;;;1.60;0.60;;;21.70;58.70;;;;;;4956638;28;20185;-74
2022/01/04 08:44:12;;;;;;;1.45;0.60;;;21.60;58.60;;;;;;4943283;28;20186;-74
2022/01/04 08:46:39;;;;;;;0.95;0.93;;;21.70;58.70;;;;;;4959488;28;20244;-74
2022/01/04 08:49:09;;;;;;;2.00;0.70;;;21.60;58.60;;;;;;4941363;29;20245;-74
2022/01/04 08:51:36;;;;;;;3.38;0.80;;;21.70;58.60;;;;;;4939950;29;20218;-74
2022/01/04 08:54:04;;;;;;;1.42;0.82;;;21.70;58.70;;;;;;4950976;29;20187;-74
2022/01/04 08:56:30;;;;;;;1.50;0.70;;;21.70;58.70;;;;;;4929201;29;20215;-75
2022/01/04 08:58:57;;;;;;;1.73;0.60;;;21.60;58.60;;;;;;4940180;29;20214;-74
2022/01/04 09:01:22;;;;;;;1.38;0.70;;;21.60;58.60;;;;;;4923959;29;20595;-74
2022/01/04 09:03:48;;;;;;;3.10;0.80;;;21.70;58.80;;;;;;4940071;29;20183;-74
2022/01/04 09:06:15;;;;;;;1.60;0.70;;;21.70;58.80;;;;;;4939915;29;20274;-74
2022/01/04 09:08:42;;;;;;;0.73;0.60;;;21.70;58.80;;;;;;4923856;29;20313;-74
2022/01/04 09:11:09;;;;;;;3.63;0.93;;;21.70;58.80;;;;;;4925157;28;20210;-74
2022/01/04 09:13:39;;;;;;;1.00;0.70;;;21.70;58.80;;;;;;4958792;28;20336;-74
2022/01/04 09:18:46;;;;;;;0.95;0.73;;;21.70;58.80;;;;;;4939747;29;20207;-74
2022/01/04 09:21:20;;;;;;;2.20;0.50;;;21.60;58.70;;;;;;4939550;29;20174;-74
2022/01/04 09:23:49;;;;;;;0.98;0.60;;;21.70;58.80;;;;;;4939552;29;20185;-74
2022/01/04 09:26:17;;;;;;;0.75;0.60;;;21.70;58.80;;;;;;4939348;29;20194;-74
2022/01/04 09:28:44;;;;;;;1.25;0.70;;;21.70;58.70;;;;;;4956569;29;20333;-74
2022/01/04 09:31:11;;;;;;;1.77;0.70;;;21.70;58.80;;;;;;4931052;28;20251;-74
2022/01/04 09:33:38;;;;;;;0.40;0.40;;;21.60;58.70;;;;;;4958803;28;20189;-74
2022/01/04 09:36:06;;;;;;;2.38;0.70;;;21.70;58.80;;;;;;4935076;28;20214;-74
2022/01/04 09:38:32;;;;;;;2.10;0.70;;;21.70;58.70;;;;;;4953489;29;20578;-74
2022/01/04 09:40:58;;;;;;;0.88;0.52;;;21.60;58.80;;;;;;4958088;28;20266;-74
2022/01/04 09:43:25;;;;;;;1.73;0.77;;;21.70;58.80;;;;;;4939143;29;20210;-74
2022/01/04 09:45:52;;;;;;;1.25;0.90;;;21.60;58.70;;;;;;4930384;28;20613;-74
2022/01/04 09:48:19;;;;;;;1.38;0.70;;;21.70;58.80;;;;;;4970991;28;20214;-74
2022/01/04 09:50:47;;;;;;;1.00;0.90;;;21.70;58.80;;;;;;4953611;28;20204;-74
2022/01/04 09:53:21;;;;;;;2.13;0.85;;;21.70;58.70;;;;;;4949962;28;20662;-74
2022/01/04 09:55:50;;;;;;;1.00;0.60;;;21.60;58.60;;;;;;4957754;28;20217;-74
2022/01/04 09:58:22;;;;;;;0.80;0.70;;;21.70;58.80;;;;;;4974136;28;20681;-74
2022/01/04 10:00:50;;;;;;;1.60;0.80;;;21.70;58.80;;;;;;4958330;28;20269;-74
2022/01/04 10:03:28;;;;;;;0.73;0.73;;;21.70;58.70;;;;;;4958441;28;20221;-74
2022/01/04 10:06:09;;;;;;;0.98;0.85;;;21.70;58.70;;;;;;4974661;28;20233;-73
2022/01/04 10:08:57;;;;;;;1.85;0.80;;;21.60;58.60;;;;;;4972242;28;20248;-73
2022/01/04 10:11:44;;;;;;;1.25;0.90;;;21.70;58.70;;;;;;4955761;28;20246;-73
2022/01/04 10:14:31;;;;;;;4.90;1.23;;;21.70;59.30;;;;;;4939848;28;20276;-74
2022/01/04 10:17:14;;;;;;;1.10;1.00;;;21.70;58.70;;;;;;4967805;28;20214;-74
2022/01/04 10:19:56;;;;;;;1.80;0.73;;;21.70;58.60;;;;;;4975263;28;20260;-74
2022/01/04 10:22:35;;;;;;;1.00;0.80;;;21.70;59.30;;;;;;4953883;29;20317;-73
2022/01/04 10:25:00;;;;;;;0.88;0.80;;;21.70;58.60;;;;;;4942390;28;20230;-73
2022/01/04 10:27:31;;;;;;;3.25;0.82;;;21.70;58.60;;;;;;4935411;29;20182;-73
2022/01/04 10:30:24;;;;;;;2.03;0.70;;;21.70;58.70;;;;;;4972589;28;20634;-74
2022/01/04 10:33:11;;;;;;;1.20;0.55;;;21.70;58.70;;;;;;4957391;28;20216;-74
2022/01/04 10:35:46;;;;;;;0.90;0.70;;;21.70;58.70;;;;;;4957510;28;20217;-74
2022/01/04 10:38:26;;;;;;;4.47;0.85;;;21.70;58.70;;;;;;4947785;28;20221;-74
2022/01/04 10:41:07;;;;;;;0.88;0.60;;;21.70;58.70;;;;;;4941392;28;20209;-74
2022/01/04 10:43:53;;;;;;;0.80;0.73;;;21.70;58.70;;;;;;4941437;28;20188;-73
2022/01/04 10:46:43;;;;;;;1.60;0.70;;;21.70;58.80;;;;;;4957225;28;20182;-74
2022/01/04 10:49:24;;;;;;;3.63;0.85;;;21.70;58.70;;;;;;4944405;28;20217;-74
2022/01/04 10:52:07;;;;;;;1.35;0.70;;;21.70;58.70;;;;;;4970271;28;20195;-74
2022/01/04 10:54:33;;;;;;;1.05;0.60;;;21.70;58.70;;;;;;4953898;29;20280;-73
2022/01/04 10:57:09;;;;;;;1.83;0.73;;;21.70;58.70;;;;;;4940845;28;20301;-73
2022/01/04 10:59:36;;;;;;;1.45;0.60;;;21.70;58.70;;;;;;4949110;29;20206;-73
2022/01/04 11:02:03;;;;;;;1.85;0.88;;;21.70;58.70;;;;;;4937406;29;20182;-73
2022/01/04 11:04:29;;;;;;;0.70;0.70;;;21.70;58.70;;;;;;4946274;28;20186;-74
2022/01/04 11:07:00;;;;;;;0.77;0.77;;;21.70;58.70;;;;;;4972368;28;20198;-74
2022/01/04 11:09:26;;;;;;;0.75;0.75;;;21.70;58.70;;;;;;4957966;28;20214;-74
2022/01/04 11:11:52;;;;;;;0.80;0.73;;;21.70;58.70;;;;;;4956869;28;20625;-74
2022/01/04 11:14:19;;;;;;;1.20;0.70;;;21.70;58.70;;;;;;4940789;28;20273;-73
2022/01/04 11:16:45;;;;;;;2.30;0.80;;;21.70;58.70;;;;;;4937246;29;20352;-73
2022/01/04 11:19:11;;;;;;;2.90;0.70;;;21.70;58.60;;;;;;4933154;28;20206;-73
2022/01/04 11:21:42;;;;;;;0.90;0.70;;;21.70;58.70;;;;;;4956727;28;20189;-74
2022/01/04 11:24:12;;;;;;;1.83;0.70;;;21.70;58.70;;;;;;4956688;28;20236;-73
2022/01/04 11:26:45;;;;;;;2.95;0.90;;;21.70;58.70;;;;;;4940826;28;20197;-73
2022/01/04 11:29:12;;;;;;;2.45;0.73;;;21.70;58.60;;;;;;4951035;28;20229;-74
2022/01/04 11:31:58;;;;;;;0.88;0.60;;;21.70;58.50;;;;;;4937792;29;20190;-74
2022/01/04 11:35:05;;;;;;;1.60;0.73;;;21.70;58.50;;;;;;4918242;29;20258;-75
2022/01/04 11:37:31;;;;;;;0.82;0.82;;;21.70;58.50;;;;;;4940074;29;20232;-75
2022/01/04 11:39:57;;;;;;;0.98;0.73;;;21.70;58.40;;;;;;4953596;29;20689;-74
2022/01/04 11:42:35;;;;;;;0.95;0.80;;;21.70;58.40;;;;;;4953559;28;20214;-75
2022/01/04 11:45:05;;;;;;;1.13;0.93;;;21.70;58.30;;;;;;4953206;29;20194;-74
2022/01/04 11:47:32;;;;;;;1.33;0.90;;;21.70;58.30;;;;;;4938248;28;20221;-74
2022/01/04 11:50:13;;;;;;;1.25;0.80;;;21.70;58.30;;;;;;4951441;28;20194;-75
2022/01/04 11:52:44;;;;;;;2.20;0.90;;;21.70;58.30;;;;;;4956594;28;20195;-75
2022/01/04 11:55:37;;;;;;;0.95;0.70;;;21.70;58.20;;;;;;4937009;28;20207;-73
2022/01/04 11:58:08;;;;;;;0.77;0.70;;;21.70;58.20;;;;;;4956448;28;20347;-74
2022/01/04 12:00:43;;;;;;;2.95;1.10;;;21.70;58.80;;;;;;4940309;28;20247;-73
2022/01/04 12:03:21;;;;;;;1.55;0.73;;;21.70;58.50;;;;;;4940485;28;20239;-74
2022/01/04 12:05:56;;;;;;;1.13;0.93;;;21.70;58.40;;;;;;4940499;28;20196;-75
2022/01/04 12:08:25;;;;;;;1.17;1.08;;;21.70;58.40;;;;;;4934972;28;20209;-71
2022/01/04 12:10:52;;;;;;;2.25;1.00;;;21.70;58.30;;;;;;4973222;28;20217;-71
2022/01/04 12:13:21;;;;;;;1.58;0.88;;;21.70;58.30;;;;;;4940339;28;20235;-71
2022/01/04 12:16:02;;;;;;;1.70;0.90;;;21.70;58.30;;;;;;4950577;29;20618;-71
2022/01/04 12:18:37;;;;;;;0.80;0.80;;;21.70;58.20;;;;;;4943281;28;20209;-71
2022/01/04 12:21:14;;;;;;;1.67;0.85;;;21.70;58.20;;;;;;4956623;29;20178;-71
2022/01/04 12:23:40;;;;;;;1.75;1.13;;;21.70;58.20;;;;;;4945570;29;20633;-70
2022/01/04 12:26:05;;;;;;;1.45;1.02;;;21.70;58.10;;;;;;4956143;29;20265;-71
2022/01/04 12:28:37;;;;;;;0.85;0.80;;;21.70;58.10;;;;;;4950715;29;20210;-71
2022/01/04 12:31:18;;;;;;;0.73;0.68;;;21.70;58.10;;;;;;4940705;29;20201;-71
2022/01/04 12:33:45;;;;;;;1.38;0.85;;;21.70;58.10;;;;;;4924803;29;20666;-71
2022/01/04 12:36:43;;;;;;;0.80;0.80;;;21.70;58.10;;;;;;4956909;28;20214;-71
2022/01/04 12:39:17;;;;;;;3.30;1.20;;;21.70;58.00;;;;;;4940803;28;20221;-71
2022/01/04 12:41:46;;;;;;;0.90;0.90;;;21.70;58.00;;;;;;4943527;28;20181;-71
2022/01/04 12:44:23;;;;;;;1.45;0.80;;;21.70;58.00;;;;;;4943347;28;20190;-71
2022/01/04 12:46:50;;;;;;;1.00;1.00;;;21.70;58.00;;;;;;4974234;28;20224;-71
2022/01/04 12:49:20;;;;;;;1.02;0.70;;;21.70;58.00;;;;;;4954379;28;20222;-71
2022/01/04 12:51:55;;;;;;;1.13;0.80;;;21.70;58.00;;;;;;4943394;28;20190;-71
2022/01/04 12:54:24;;;;;;;0.95;0.80;;;21.70;57.90;;;;;;4959256;28;20181;-71
2022/01/04 12:57:01;;;;;;;1.58;0.80;;;21.70;57.90;;;;;;4943395;28;20222;-71
2022/01/04 12:59:26;;;;;;;1.02;0.93;;;21.70;57.90;;;;;;4941085;28;20233;-71
2022/01/04 13:02:03;;;;;;;1.17;1.02;;;21.70;57.90;;;;;;4940203;29;20225;-71
2022/01/04 13:04:34;;;;;;;0.90;0.80;;;21.70;57.80;;;;;;4940099;29;20225;-71